createdAt,value
2019-02-22T00:02:15.992Z,20.92
2019-02-22T00:04:44.811Z,21.02
2019-02-22T00:07:13.644Z,20.25
2019-02-22T00:09:49.465Z,19.07
2019-02-22T00:12:13.016Z,21.27
2019-02-22T00:14:41.863Z,18.35
2019-02-22T00:17:10.691Z,17.10
2019-02-22T00:19:39.507Z,16.25
2019-02-22T00:22:08.384Z,15.85
2019-02-22T00:24:37.254Z,15.32
2019-02-22T00:27:06.025Z,16.15
2019-02-22T00:29:34.818Z,15.70
2019-02-22T00:32:03.676Z,15.53
2019-02-22T00:34:32.505Z,15.95
2019-02-22T00:37:01.346Z,16.40
2019-02-22T00:39:30.150Z,14.85
2019-02-22T00:41:58.946Z,15.40
2019-02-22T00:44:27.831Z,15.47
2019-02-22T00:46:56.688Z,13.13
2019-02-22T00:49:25.592Z,13.55
2019-02-22T00:51:54.443Z,12.40
2019-02-22T00:54:23.307Z,12.55
2019-02-22T00:56:52.091Z,18.45
2019-02-22T00:59:20.905Z,22.65
2019-02-22T01:01:49.681Z,14.70
2019-02-22T01:04:18.527Z,18.05
2019-02-22T01:06:47.336Z,24.30
2019-02-22T01:09:16.201Z,15.45
2019-02-22T01:11:45.020Z,12.00
2019-02-22T01:14:13.834Z,11.95
2019-02-22T01:16:42.637Z,11.20
2019-02-22T01:19:11.425Z,11.65
2019-02-22T01:21:40.284Z,11.80
2019-02-22T01:24:09.158Z,10.58
2019-02-22T01:26:37.945Z,10.78
2019-02-22T01:29:06.809Z,16.12
2019-02-22T01:34:19.271Z,9.33
2019-02-22T01:36:48.099Z,8.88
2019-02-22T01:39:16.939Z,8.60
2019-02-22T01:41:45.777Z,9.18
2019-02-22T01:44:20.100Z,8.03
2019-02-22T01:46:49.056Z,7.58
2019-02-22T01:49:17.856Z,8.50
2019-02-22T01:51:46.620Z,8.58
2019-02-22T01:54:15.430Z,7.60
2019-02-22T01:56:44.237Z,10.10
2019-02-22T01:59:13.030Z,10.05
2019-02-22T02:01:41.910Z,10.90
2019-02-22T02:04:10.691Z,15.13
2019-02-22T02:06:39.485Z,10.00
2019-02-22T02:09:08.452Z,10.63
2019-02-22T02:11:37.320Z,7.45
2019-02-22T02:14:06.302Z,7.25
2019-02-22T02:16:35.121Z,7.72
2019-02-22T02:19:04.027Z,10.50
2019-02-22T02:21:32.812Z,10.58
2019-02-22T02:24:01.578Z,8.95
2019-02-22T02:26:30.385Z,7.70
2019-02-22T02:28:59.185Z,8.13
2019-02-22T02:31:28.057Z,7.60
2019-02-22T02:33:56.839Z,6.30
2019-02-22T02:36:25.710Z,5.28
2019-02-22T02:38:54.571Z,5.33
2019-02-22T02:41:23.408Z,5.55
2019-02-22T02:43:52.239Z,5.40
2019-02-22T02:46:21.076Z,4.83
2019-02-22T02:48:49.854Z,5.50
2019-02-22T02:51:18.664Z,5.00
2019-02-22T02:53:47.509Z,5.42
2019-02-22T02:56:16.288Z,5.05
2019-02-22T02:58:45.078Z,5.50
2019-02-22T03:01:13.885Z,4.78
2019-02-22T03:03:42.773Z,4.30
2019-02-22T03:06:18.814Z,4.78
2019-02-22T03:08:47.576Z,5.35
2019-02-22T03:11:20.585Z,5.37
2019-02-22T03:13:46.934Z,8.90
2019-02-22T03:16:16.044Z,5.20
2019-02-22T03:18:45.115Z,8.95
2019-02-22T03:21:13.938Z,7.30
2019-02-22T03:23:42.695Z,6.42
2019-02-22T03:26:11.489Z,5.30
2019-02-22T03:28:40.304Z,5.60
2019-02-22T03:31:09.170Z,4.40
2019-02-22T03:33:38.615Z,4.40
2019-02-22T03:36:07.489Z,4.12
2019-02-22T03:38:36.269Z,4.12
2019-02-22T03:41:05.175Z,3.90
2019-02-22T03:43:34.038Z,3.58
2019-02-22T03:46:02.900Z,3.90
2019-02-22T03:48:31.754Z,4.17
2019-02-22T03:51:00.639Z,2.92
2019-02-22T03:53:33.307Z,3.08
2019-02-22T03:56:02.125Z,3.00
2019-02-22T03:58:31.006Z,3.05
2019-02-22T04:00:59.853Z,3.00
2019-02-22T04:03:28.683Z,3.50
2019-02-22T04:05:57.605Z,3.60
2019-02-22T04:08:26.414Z,3.50
2019-02-22T04:10:55.252Z,4.10
2019-02-22T04:13:24.111Z,4.33
2019-02-22T04:15:52.907Z,4.22
2019-02-22T04:18:21.738Z,4.60
2019-02-22T04:20:51.997Z,5.15
2019-02-22T04:23:20.797Z,6.45
2019-02-22T04:25:49.656Z,5.40
2019-02-22T04:28:18.487Z,6.10
2019-02-22T04:30:47.252Z,6.03
2019-02-22T04:33:16.129Z,5.70
2019-02-22T04:35:45.018Z,5.60
2019-02-22T04:38:13.793Z,6.57
2019-02-22T04:40:42.583Z,6.45
2019-02-22T04:43:11.338Z,6.70
2019-02-22T04:45:40.225Z,6.95
2019-02-22T04:48:09.125Z,6.50
2019-02-22T04:50:38.083Z,6.80
2019-02-22T04:53:06.936Z,7.20
2019-02-22T04:55:35.787Z,8.00
2019-02-22T04:58:04.581Z,7.67
2019-02-22T05:00:33.381Z,8.20
2019-02-22T05:03:02.224Z,10.00
2019-02-22T05:05:31.041Z,10.40
2019-02-22T05:07:59.903Z,10.20
2019-02-22T05:10:28.690Z,10.13
2019-02-22T05:12:57.532Z,11.00
2019-02-22T05:15:26.394Z,11.40
2019-02-22T05:17:55.200Z,11.83
2019-02-22T05:20:24.035Z,11.75
2019-02-22T05:23:03.307Z,11.50
2019-02-22T05:25:23.482Z,14.23
2019-02-22T05:27:52.260Z,15.48
2019-02-22T05:30:21.038Z,15.38
2019-02-22T05:32:49.969Z,18.35
2019-02-22T05:35:18.859Z,18.40
2019-02-22T05:37:47.777Z,16.42
2019-02-22T05:40:16.765Z,18.95
2019-02-22T05:42:45.631Z,16.70
2019-02-22T05:45:14.483Z,18.17
2019-02-22T05:47:43.292Z,19.00
2019-02-22T05:50:12.139Z,17.85
2019-02-22T05:52:40.928Z,19.27
2019-02-22T05:55:09.725Z,18.45
2019-02-22T05:57:38.577Z,18.45
2019-02-22T06:00:07.664Z,18.60
2019-02-22T06:02:36.554Z,18.60
2019-02-22T06:05:05.765Z,15.75
2019-02-22T06:07:34.605Z,17.00
2019-02-22T06:10:03.619Z,15.00
2019-02-22T06:12:34.909Z,15.93
2019-02-22T06:15:03.151Z,16.00
2019-02-22T06:17:32.013Z,15.63
2019-02-22T06:20:00.787Z,14.18
2019-02-22T06:22:30.128Z,13.85
2019-02-22T06:24:59.085Z,12.10
2019-02-22T06:27:27.889Z,10.55
2019-02-22T06:29:56.701Z,11.60
2019-02-22T06:32:28.186Z,9.65
2019-02-22T06:34:57.111Z,10.50
2019-02-22T06:37:26.043Z,8.60
2019-02-22T06:39:54.919Z,7.85
2019-02-22T06:42:23.834Z,7.53
2019-02-22T06:44:52.711Z,7.03
2019-02-22T06:47:22.872Z,8.95
2019-02-22T06:49:51.909Z,5.50
2019-02-22T06:52:20.800Z,5.47
2019-02-22T06:54:49.654Z,6.20
2019-02-22T06:57:18.439Z,5.70
2019-02-22T06:59:47.325Z,6.00
2019-02-22T07:02:16.126Z,6.40
2019-02-22T07:04:44.945Z,5.42
2019-02-22T07:07:13.758Z,5.22
2019-02-22T07:09:42.608Z,5.92
2019-02-22T07:12:15.579Z,5.28
2019-02-22T07:14:44.386Z,5.33
2019-02-22T07:17:13.365Z,5.00
2019-02-22T07:19:42.219Z,3.85
2019-02-22T07:22:11.085Z,4.03
2019-02-22T07:24:39.910Z,4.37
2019-02-22T07:27:08.702Z,3.40
2019-02-22T07:29:37.630Z,2.55
2019-02-22T07:32:07.006Z,2.40
2019-02-22T07:34:35.832Z,4.17
2019-02-22T07:37:04.648Z,2.22
2019-02-22T07:39:33.467Z,3.98
2019-02-22T07:42:02.336Z,4.30
2019-02-22T07:44:31.512Z,2.95
2019-02-22T07:47:00.355Z,5.50
2019-02-22T07:49:29.215Z,3.40
2019-02-22T07:51:58.380Z,3.05
2019-02-22T07:54:27.235Z,3.10
2019-02-22T07:56:56.101Z,2.83
2019-02-22T07:59:25.010Z,3.15
2019-02-22T08:01:53.839Z,3.27
2019-02-22T08:04:22.792Z,3.40
2019-02-22T08:06:51.867Z,2.15
2019-02-22T08:09:20.626Z,4.30
2019-02-22T08:11:49.507Z,4.33
2019-02-22T08:14:18.261Z,3.00
2019-02-22T08:16:47.044Z,4.28
2019-02-22T08:19:15.884Z,4.20
2019-02-22T08:21:44.721Z,4.00
2019-02-22T08:24:13.584Z,3.90
2019-02-22T08:26:42.403Z,4.60
2019-02-22T08:29:11.324Z,2.58
2019-02-22T08:31:40.130Z,3.65
2019-02-22T08:34:09.057Z,4.20
2019-02-22T08:36:37.908Z,4.90
2019-02-22T08:39:06.762Z,6.42
2019-02-22T08:41:35.647Z,8.00
2019-02-22T08:44:04.800Z,4.25
2019-02-22T08:46:33.663Z,3.12
2019-02-22T08:49:02.598Z,4.90
2019-02-22T08:51:31.431Z,3.60
2019-02-22T08:54:00.287Z,6.40
2019-02-22T08:56:29.201Z,3.30
2019-02-22T08:58:58.138Z,3.52
2019-02-22T09:01:26.979Z,4.05
2019-02-22T09:03:55.773Z,3.37
2019-02-22T09:06:24.747Z,3.00
2019-02-22T09:08:53.644Z,3.13
2019-02-22T09:11:23.722Z,4.40
2019-02-22T09:13:52.598Z,4.28
2019-02-22T09:16:21.432Z,3.90
2019-02-22T09:18:50.274Z,2.27
2019-02-22T09:21:19.135Z,3.60
2019-02-22T09:23:48.055Z,3.67
2019-02-22T09:26:16.915Z,2.83
2019-02-22T09:28:45.737Z,3.25
2019-02-22T09:31:14.646Z,4.28
2019-02-22T09:33:43.500Z,5.78
2019-02-22T09:36:12.328Z,3.62
2019-02-22T09:38:41.170Z,6.62
2019-02-22T09:41:10.128Z,2.77
2019-02-22T09:43:39.065Z,4.37
2019-02-22T09:46:07.906Z,7.75
2019-02-22T09:48:36.888Z,2.70
2019-02-22T09:51:05.663Z,3.25
2019-02-22T09:53:34.489Z,2.55
2019-02-22T09:56:03.306Z,5.20
2019-02-22T09:58:32.155Z,4.83
2019-02-22T10:01:01.000Z,5.55
2019-02-22T10:03:29.753Z,5.33
2019-02-22T10:05:58.522Z,4.47
2019-02-22T10:08:27.366Z,3.10
2019-02-22T10:10:56.194Z,2.37
2019-02-22T10:13:24.999Z,3.70
2019-02-22T10:15:53.852Z,4.15
2019-02-22T10:18:22.635Z,6.37
2019-02-22T10:20:51.511Z,23.00
2019-02-22T10:23:20.305Z,2.37
2019-02-22T10:25:49.239Z,4.30
2019-02-22T10:28:18.293Z,2.50
2019-02-22T10:30:47.350Z,2.80
2019-02-22T10:33:16.217Z,3.80
2019-02-22T10:35:45.060Z,2.65
2019-02-22T10:38:13.976Z,3.20
2019-02-22T10:40:42.850Z,4.37
2019-02-22T10:43:11.689Z,4.40
2019-02-22T10:45:40.478Z,5.87
2019-02-22T10:48:09.277Z,4.40
2019-02-22T10:50:38.105Z,4.90
2019-02-22T10:53:06.974Z,3.60
2019-02-22T10:55:35.795Z,4.00
2019-02-22T10:58:04.731Z,2.80
2019-02-22T11:00:33.605Z,3.00
2019-02-22T11:03:02.443Z,3.30
2019-02-22T11:05:31.343Z,3.75
2019-02-22T11:08:00.140Z,4.65
2019-02-22T11:10:28.947Z,3.00
2019-02-22T11:12:57.899Z,3.00
2019-02-22T11:15:26.716Z,3.72
2019-02-22T11:17:55.588Z,4.50
2019-02-22T11:20:24.433Z,6.10
2019-02-22T11:22:53.310Z,7.05
2019-02-22T11:25:22.081Z,5.90
2019-02-22T11:27:51.052Z,2.72
2019-02-22T11:30:19.903Z,3.30
2019-02-22T11:32:48.678Z,3.60
2019-02-22T11:35:17.651Z,7.37
2019-02-22T11:37:46.712Z,3.90
2019-02-22T11:40:15.639Z,2.95
2019-02-22T11:42:44.423Z,3.22
2019-02-22T11:45:13.220Z,3.02
2019-02-22T11:47:42.018Z,3.42
2019-02-22T11:50:10.938Z,7.47
2019-02-22T11:52:39.870Z,3.40
2019-02-22T11:55:08.989Z,3.22
2019-02-22T11:57:40.847Z,5.62
2019-02-22T12:00:12.464Z,4.70
2019-02-22T12:02:41.385Z,3.10
2019-02-22T12:05:10.315Z,3.02
2019-02-22T12:07:39.160Z,3.70
2019-02-22T12:10:08.135Z,5.97
2019-02-22T12:12:36.993Z,3.98
2019-02-22T12:15:06.178Z,3.50
2019-02-22T12:17:35.145Z,3.50
2019-02-22T12:20:04.018Z,5.05
2019-02-22T12:22:32.792Z,3.90
2019-02-22T12:25:01.580Z,3.77
2019-02-22T12:27:30.386Z,3.30
2019-02-22T12:29:59.215Z,3.55
2019-02-22T12:32:28.093Z,4.65
2019-02-22T12:34:57.027Z,3.40
2019-02-22T12:37:25.878Z,4.58
2019-02-22T12:39:54.915Z,3.05
2019-02-22T12:42:23.728Z,3.00
2019-02-22T12:45:02.483Z,4.50
2019-02-22T12:47:23.359Z,4.12
2019-02-22T12:49:52.125Z,3.30
2019-02-22T12:52:23.852Z,3.75
2019-02-22T12:54:55.906Z,2.50
2019-02-22T12:57:34.612Z,3.30
2019-02-22T13:00:08.050Z,5.05
2019-02-22T13:03:01.266Z,3.70
2019-02-22T14:07:50.144Z,2.90
2019-02-22T14:10:19.489Z,16.48
2019-02-22T14:12:48.245Z,5.65
2019-02-22T14:15:18.818Z,4.17
2019-02-22T14:17:47.561Z,5.45
2019-02-22T14:20:16.485Z,7.50
